RZR weather

Cleveland Regional Jetport
Cleveland, Tennessee, United States

Public forecast

Using degrees Fahrenheit for public forecast. Weather courtesy of forecast.io.

METAR (pilot weather report)

Retrieved 2019/05/21 12:35 UTC (6 minutes ago):

KRZR 211235Z AUTO 00000KT 3SM BR CLR 18/16 A2998 RMK A01

TAF (pilot weather forecast)

Closest forecast is Lovell Field, 22.5 nm (41.6 km) WSW. Retrieved 2019/05/21 12:28 UTC (13 minutes ago):

TAF KCHA 211126Z 2112/2212 VRB02KT P6SM SCT250 FM211700 17006KT P6SM FEW060 SCT250 FM220200 VRB02KT P6SM SCT250